Airfield :
LOGIN :

Register | Disclaimer

   EN    FR    IT 

 










Legend :    VFR   Marginal VFR   IFR   Intensive IFR   Very Intensive IFR
Visi :
Ceiling :
>= 8 km
>= 3000ft
5 to 8 km
1000 to 3000 ft
1500m to 5 km
500 to 1000 ft
800 to 1500m
200 to 500 ft
< 800m
< 200 ft
Symbols :   Thunderstorms  Fog  Heavy snow  Heavy precipitations  Wind > 20 kt
SIGMETs :     Misc.  Thunderstorms  Icing  Turbulence  Mountain Waves  Volcanic Ashes







- Airport Elevation : 220 ft
- IATA code : CWL
- Download approach charts


EGFF - Cardiff Rhoose

CURRENT METAR :
  • 221820Z AUTO 14005KT 9999 NCD 17/10 Q1001

EXPIRED METARs :
  • 221750Z AUTO 15006KT 9999 NCD 17/10 Q1001
  • 221720Z 15006KT CAVOK 18/10 Q1001
  • 221650Z AUTO 16006KT 9999 NCD 19/10 Q1001
  • 221620Z 17006KT 9999 FEW030TCU 20/08 Q1001
  • 221550Z AUTO 14007KT 9999 NCD 21/07 Q1001

TAF TAF EGFF
Valid from the 22 at 18:00 until the 23 at 18:00 UTC


221653Z 2218/2318 12010KT CAVOK
PROB30
TEMPO 2218/2306 8000 SHRA
BECMG 2221/2224 VRB04KT
BECMG 2302/2305 08010KT
ATIS : +44 1446 729 319
No reported NOTAMs for that airfield.



MET'MAP, your aeronautical weather chart ! - Copyright ORBIFLY December 2007 - Disclaimer

ORBIFLY MET'MAP TEAM :

Programming & Development : Alexandra Zaïnal
Concept & Development : Baudouin d'Aumeries
Co-Development & Prog : Marc-Olivier Méhu
Technical & hardware support : Manuel Goepfert

Contact : metmap@orbifly.com




SOURCES & CREDITS :

   NOAA